sensor_id;sensor_type;location;lat;lon;timestamp;temperature;humidity
429;DHT22;201;48.758;9.290;2023-06-26T00:02:14;19.90;1.00
429;DHT22;201;48.758;9.290;2023-06-26T00:04:42;19.90;1.00
429;DHT22;201;48.758;9.290;2023-06-26T00:07:07;19.90;1.00
429;DHT22;201;48.758;9.290;2023-06-26T00:09:33;19.90;1.00
429;DHT22;201;48.758;9.290;2023-06-26T00:11:58;19.80;1.00
429;DHT22;201;48.758;9.290;2023-06-26T00:14:24;19.70;1.00
429;DHT22;201;48.758;9.290;2023-06-26T00:16:51;19.70;1.00
429;DHT22;201;48.758;9.290;2023-06-26T00:19:17;19.70;1.00
429;DHT22;201;48.758;9.290;2023-06-26T00:21:43;19.60;1.00
429;DHT22;201;48.758;9.290;2023-06-26T00:24:12;19.60;1.00
429;DHT22;201;48.758;9.290;2023-06-26T00:26:37;19.60;1.00
429;DHT22;201;48.758;9.290;2023-06-26T00:29:03;19.60;1.00
429;DHT22;201;48.758;9.290;2023-06-26T00:31:28;19.60;1.00
429;DHT22;201;48.758;9.290;2023-06-26T00:33:54;19.60;1.00
429;DHT22;201;48.758;9.290;2023-06-26T00:36:19;19.50;1.00
429;DHT22;201;48.758;9.290;2023-06-26T00:38:45;19.50;1.00
429;DHT22;201;48.758;9.290;2023-06-26T00:41:10;19.50;1.00
429;DHT22;201;48.758;9.290;2023-06-26T00:43:37;19.40;1.00
429;DHT22;201;48.758;9.290;2023-06-26T00:46:03;19.40;1.00
429;DHT22;201;48.758;9.290;2023-06-26T00:48:29;19.30;1.00
429;DHT22;201;48.758;9.290;2023-06-26T00:50:55;19.30;1.00
429;DHT22;201;48.758;9.290;2023-06-26T00:53:21;19.20;1.00
429;DHT22;201;48.758;9.290;2023-06-26T00:55:47;19.20;1.00
429;DHT22;201;48.758;9.290;2023-06-26T00:58:13;19.10;1.00
429;DHT22;201;48.758;9.290;2023-06-26T01:00:39;19.10;1.00
429;DHT22;201;48.758;9.290;2023-06-26T01:03:04;19.00;1.00
429;DHT22;201;48.758;9.290;2023-06-26T01:05:30;19.00;1.00
429;DHT22;201;48.758;9.290;2023-06-26T01:07:57;19.00;1.00
429;DHT22;201;48.758;9.290;2023-06-26T01:10:23;18.90;1.00
429;DHT22;201;48.758;9.290;2023-06-26T01:12:49;18.90;1.00
429;DHT22;201;48.758;9.290;2023-06-26T01:15:15;18.90;1.00
429;DHT22;201;48.758;9.290;2023-06-26T01:17:41;18.90;1.00
429;DHT22;201;48.758;9.290;2023-06-26T01:20:11;18.90;1.00
429;DHT22;201;48.758;9.290;2023-06-26T01:28:04;18.70;1.00
429;DHT22;201;48.758;9.290;2023-06-26T01:30:32;18.70;1.00
429;DHT22;201;48.758;9.290;2023-06-26T01:32:59;18.70;1.00
429;DHT22;201;48.758;9.290;2023-06-26T01:35:26;18.70;1.00
429;DHT22;201;48.758;9.290;2023-06-26T01:37:52;18.60;1.00
429;DHT22;201;48.758;9.290;2023-06-26T01:40:18;18.60;1.00
429;DHT22;201;48.758;9.290;2023-06-26T01:42:43;18.60;1.00
429;DHT22;201;48.758;9.290;2023-06-26T01:45:25;18.60;1.00
429;DHT22;201;48.758;9.290;2023-06-26T01:47:52;18.50;1.00
429;DHT22;201;48.758;9.290;2023-06-26T01:50:28;18.50;1.00
429;DHT22;201;48.758;9.290;2023-06-26T01:53:02;18.50;1.00
429;DHT22;201;48.758;9.290;2023-06-26T01:58:02;18.40;1.00
429;DHT22;201;48.758;9.290;2023-06-26T02:00:29;18.40;1.00
429;DHT22;201;48.758;9.290;2023-06-26T02:02:54;18.30;1.00
429;DHT22;201;48.758;9.290;2023-06-26T02:05:20;18.30;1.00
429;DHT22;201;48.758;9.290;2023-06-26T02:07:45;18.30;1.00
429;DHT22;201;48.758;9.290;2023-06-26T02:10:11;18.30;1.00
429;DHT22;201;48.758;9.290;2023-06-26T02:12:37;18.30;1.00
429;DHT22;201;48.758;9.290;2023-06-26T02:15:03;18.20;1.00
429;DHT22;201;48.758;9.290;2023-06-26T02:17:29;18.20;1.00
429;DHT22;201;48.758;9.290;2023-06-26T02:19:55;18.20;1.00
429;DHT22;201;48.758;9.290;2023-06-26T02:22:20;18.20;1.00
429;DHT22;201;48.758;9.290;2023-06-26T02:24:46;18.20;1.00
429;DHT22;201;48.758;9.290;2023-06-26T02:27:11;18.10;1.00
429;DHT22;201;48.758;9.290;2023-06-26T02:29:38;18.10;1.00
429;DHT22;201;48.758;9.290;2023-06-26T02:32:04;18.10;1.00
429;DHT22;201;48.758;9.290;2023-06-26T02:34:29;18.20;1.00
429;DHT22;201;48.758;9.290;2023-06-26T02:36:55;18.20;1.00
429;DHT22;201;48.758;9.290;2023-06-26T02:39:21;18.20;1.00
429;DHT22;201;48.758;9.290;2023-06-26T02:41:47;18.20;1.00
429;DHT22;201;48.758;9.290;2023-06-26T02:44:13;18.20;1.00
429;DHT22;201;48.758;9.290;2023-06-26T02:46:40;18.30;1.00
429;DHT22;201;48.758;9.290;2023-06-26T02:49:06;18.30;1.00
429;DHT22;201;48.758;9.290;2023-06-26T02:51:33;18.30;1.00
429;DHT22;201;48.758;9.290;2023-06-26T02:53:58;18.40;1.00
429;DHT22;201;48.758;9.290;2023-06-26T02:56:24;18.40;1.00
429;DHT22;201;48.758;9.290;2023-06-26T02:58:49;18.40;1.00
429;DHT22;201;48.758;9.290;2023-06-26T03:01:15;18.30;1.00
429;DHT22;201;48.758;9.290;2023-06-26T03:03:41;18.40;1.00
429;DHT22;201;48.758;9.290;2023-06-26T03:06:07;18.40;1.00
429;DHT22;201;48.758;9.290;2023-06-26T03:08:36;18.50;1.00
429;DHT22;201;48.758;9.290;2023-06-26T03:11:02;18.50;1.00
429;DHT22;201;48.758;9.290;2023-06-26T03:13:27;18.40;1.00
429;DHT22;201;48.758;9.290;2023-06-26T03:15:53;18.50;1.00
429;DHT22;201;48.758;9.290;2023-06-26T03:18:18;18.50;1.00
429;DHT22;201;48.758;9.290;2023-06-26T03:20:44;18.40;1.00
429;DHT22;201;48.758;9.290;2023-06-26T03:23:09;18.30;1.00
429;DHT22;201;48.758;9.290;2023-06-26T03:25:35;18.20;1.00
429;DHT22;201;48.758;9.290;2023-06-26T03:28:00;18.10;1.00
429;DHT22;201;48.758;9.290;2023-06-26T03:30:26;18.10;1.00
429;DHT22;201;48.758;9.290;2023-06-26T03:32:51;18.00;1.00
429;DHT22;201;48.758;9.290;2023-06-26T03:35:17;18.00;1.00
429;DHT22;201;48.758;9.290;2023-06-26T03:37:43;18.00;1.00
429;DHT22;201;48.758;9.290;2023-06-26T03:40:09;17.90;1.00
429;DHT22;201;48.758;9.290;2023-06-26T03:42:34;17.90;1.00
429;DHT22;201;48.758;9.290;2023-06-26T03:45:00;17.70;1.00
429;DHT22;201;48.758;9.290;2023-06-26T03:47:25;17.60;1.00
429;DHT22;201;48.758;9.290;2023-06-26T03:49:51;17.60;1.00
429;DHT22;201;48.758;9.290;2023-06-26T03:52:16;17.50;1.00
429;DHT22;201;48.758;9.290;2023-06-26T03:54:42;17.40;1.00
429;DHT22;201;48.758;9.290;2023-06-26T03:57:07;17.30;1.00
429;DHT22;201;48.758;9.290;2023-06-26T03:59:33;17.20;1.00
429;DHT22;201;48.758;9.290;2023-06-26T04:01:58;17.20;1.00
429;DHT22;201;48.758;9.290;2023-06-26T04:04:24;17.10;1.00
429;DHT22;201;48.758;9.290;2023-06-26T04:06:49;17.10;1.00
429;DHT22;201;48.758;9.290;2023-06-26T04:09:16;17.10;1.00
429;DHT22;201;48.758;9.290;2023-06-26T04:11:41;17.10;1.00
429;DHT22;201;48.758;9.290;2023-06-26T04:14:07;17.10;1.00
429;DHT22;201;48.758;9.290;2023-06-26T04:16:32;17.10;1.00
429;DHT22;201;48.758;9.290;2023-06-26T04:18:58;17.10;1.00
429;DHT22;201;48.758;9.290;2023-06-26T04:21:23;17.00;1.00
429;DHT22;201;48.758;9.290;2023-06-26T04:23:50;17.00;1.00
429;DHT22;201;48.758;9.290;2023-06-26T04:26:16;17.00;1.00
429;DHT22;201;48.758;9.290;2023-06-26T04:28:42;17.00;1.00
429;DHT22;201;48.758;9.290;2023-06-26T04:31:08;17.00;1.00
429;DHT22;201;48.758;9.290;2023-06-26T04:33:34;17.00;1.00
429;DHT22;201;48.758;9.290;2023-06-26T04:36:02;17.10;1.00
429;DHT22;201;48.758;9.290;2023-06-26T04:38:29;17.20;1.00
429;DHT22;201;48.758;9.290;2023-06-26T04:40:54;17.20;1.00
429;DHT22;201;48.758;9.290;2023-06-26T04:43:20;17.30;1.00
429;DHT22;201;48.758;9.290;2023-06-26T04:45:45;17.40;1.00
429;DHT22;201;48.758;9.290;2023-06-26T04:48:11;17.50;1.00
429;DHT22;201;48.758;9.290;2023-06-26T04:50:36;17.60;1.00
429;DHT22;201;48.758;9.290;2023-06-26T04:53:02;17.70;1.00
429;DHT22;201;48.758;9.290;2023-06-26T04:55:27;17.80;1.00
429;DHT22;201;48.758;9.290;2023-06-26T04:57:53;17.90;1.00
429;DHT22;201;48.758;9.290;2023-06-26T05:00:19;18.10;1.00
429;DHT22;201;48.758;9.290;2023-06-26T05:02:45;18.20;1.00
429;DHT22;201;48.758;9.290;2023-06-26T05:05:10;18.40;1.00
429;DHT22;201;48.758;9.290;2023-06-26T05:07:37;18.50;1.00
429;DHT22;201;48.758;9.290;2023-06-26T05:10:03;18.60;1.00
429;DHT22;201;48.758;9.290;2023-06-26T05:12:28;18.80;1.00
429;DHT22;201;48.758;9.290;2023-06-26T05:14:54;19.10;1.00
429;DHT22;201;48.758;9.290;2023-06-26T05:17:19;19.30;1.00
429;DHT22;201;48.758;9.290;2023-06-26T05:19:45;19.50;1.00
429;DHT22;201;48.758;9.290;2023-06-26T05:22:12;19.70;1.00
429;DHT22;201;48.758;9.290;2023-06-26T05:24:39;19.80;1.00
429;DHT22;201;48.758;9.290;2023-06-26T05:27:05;20.00;1.00
429;DHT22;201;48.758;9.290;2023-06-26T05:29:32;20.00;1.00
429;DHT22;201;48.758;9.290;2023-06-26T05:31:58;20.00;1.00
429;DHT22;201;48.758;9.290;2023-06-26T05:34:25;20.20;1.00
429;DHT22;201;48.758;9.290;2023-06-26T05:36:57;20.30;1.00
429;DHT22;201;48.758;9.290;2023-06-26T05:39:23;20.50;1.00
429;DHT22;201;48.758;9.290;2023-06-26T05:41:49;20.90;1.00
429;DHT22;201;48.758;9.290;2023-06-26T05:44:14;21.50;1.00
429;DHT22;201;48.758;9.290;2023-06-26T05:46:40;22.30;1.00
429;DHT22;201;48.758;9.290;2023-06-26T05:49:05;22.90;1.00
429;DHT22;201;48.758;9.290;2023-06-26T05:51:31;23.40;1.00
429;DHT22;201;48.758;9.290;2023-06-26T05:53:57;23.60;1.00
429;DHT22;201;48.758;9.290;2023-06-26T05:56:23;23.60;1.00
429;DHT22;201;48.758;9.290;2023-06-26T05:58:49;23.60;1.00
429;DHT22;201;48.758;9.290;2023-06-26T06:01:15;24.20;1.00
429;DHT22;201;48.758;9.290;2023-06-26T06:03:40;24.90;1.00
429;DHT22;201;48.758;9.290;2023-06-26T06:06:06;26.00;1.00
429;DHT22;201;48.758;9.290;2023-06-26T06:08:32;26.90;1.00
429;DHT22;201;48.758;9.290;2023-06-26T06:11:00;27.60;1.00
429;DHT22;201;48.758;9.290;2023-06-26T06:13:26;27.80;1.00
429;DHT22;201;48.758;9.290;2023-06-26T06:15:51;27.70;1.00
429;DHT22;201;48.758;9.290;2023-06-26T06:18:17;27.10;1.00
429;DHT22;201;48.758;9.290;2023-06-26T06:20:42;26.90;1.00
429;DHT22;201;48.758;9.290;2023-06-26T06:23:08;27.20;1.00
429;DHT22;201;48.758;9.290;2023-06-26T06:25:33;28.10;1.00
429;DHT22;201;48.758;9.290;2023-06-26T06:27:59;28.70;1.00
429;DHT22;201;48.758;9.290;2023-06-26T06:30:24;29.20;1.00
429;DHT22;201;48.758;9.290;2023-06-26T06:32:50;29.60;1.00
429;DHT22;201;48.758;9.290;2023-06-26T06:35:18;29.50;1.00
429;DHT22;201;48.758;9.290;2023-06-26T06:37:44;30.10;1.00
429;DHT22;201;48.758;9.290;2023-06-26T06:40:10;30.80;1.00
429;DHT22;201;48.758;9.290;2023-06-26T06:42:36;31.70;1.00
429;DHT22;201;48.758;9.290;2023-06-26T06:45:03;32.20;1.00
429;DHT22;201;48.758;9.290;2023-06-26T06:47:28;33.30;1.00
429;DHT22;201;48.758;9.290;2023-06-26T06:49:54;34.00;1.00
429;DHT22;201;48.758;9.290;2023-06-26T06:52:20;34.50;1.00
429;DHT22;201;48.758;9.290;2023-06-26T06:54:56;34.80;1.00
429;DHT22;201;48.758;9.290;2023-06-26T06:57:24;35.90;1.00
429;DHT22;201;48.758;9.290;2023-06-26T06:59:50;37.00;1.00
429;DHT22;201;48.758;9.290;2023-06-26T07:02:17;37.90;1.00
429;DHT22;201;48.758;9.290;2023-06-26T07:04:42;38.30;1.00
429;DHT22;201;48.758;9.290;2023-06-26T07:07:08;38.90;1.00
429;DHT22;201;48.758;9.290;2023-06-26T07:09:34;39.10;1.00
429;DHT22;201;48.758;9.290;2023-06-26T07:11:59;38.80;1.00
429;DHT22;201;48.758;9.290;2023-06-26T07:14:25;38.50;1.00
429;DHT22;201;48.758;9.290;2023-06-26T07:16:51;38.60;1.00
429;DHT22;201;48.758;9.290;2023-06-26T07:19:16;39.20;1.00
429;DHT22;201;48.758;9.290;2023-06-26T07:21:42;39.40;1.00
429;DHT22;201;48.758;9.290;2023-06-26T07:24:10;39.40;1.00
429;DHT22;201;48.758;9.290;2023-06-26T07:26:36;40.50;1.00
429;DHT22;201;48.758;9.290;2023-06-26T07:29:01;40.90;1.00
429;DHT22;201;48.758;9.290;2023-06-26T07:31:26;41.00;1.00
429;DHT22;201;48.758;9.290;2023-06-26T07:33:52;41.20;1.00
429;DHT22;201;48.758;9.290;2023-06-26T07:36:18;41.60;1.00
429;DHT22;201;48.758;9.290;2023-06-26T07:38:43;42.00;1.00
429;DHT22;201;48.758;9.290;2023-06-26T07:41:09;41.90;1.00
429;DHT22;201;48.758;9.290;2023-06-26T07:43:34;42.20;1.00
429;DHT22;201;48.758;9.290;2023-06-26T07:46:00;42.80;1.00
429;DHT22;201;48.758;9.290;2023-06-26T07:48:25;43.80;1.00
429;DHT22;201;48.758;9.290;2023-06-26T07:50:51;44.60;1.00
429;DHT22;201;48.758;9.290;2023-06-26T07:53:16;45.10;1.00
429;DHT22;201;48.758;9.290;2023-06-26T07:55:43;45.50;1.00
429;DHT22;201;48.758;9.290;2023-06-26T07:58:08;45.80;1.00
429;DHT22;201;48.758;9.290;2023-06-26T08:00:34;46.10;1.00
429;DHT22;201;48.758;9.290;2023-06-26T08:02:59;46.40;1.00
429;DHT22;201;48.758;9.290;2023-06-26T08:05:25;46.70;1.00
429;DHT22;201;48.758;9.290;2023-06-26T08:07:50;46.60;1.00
429;DHT22;201;48.758;9.290;2023-06-26T08:10:16;46.00;1.00
429;DHT22;201;48.758;9.290;2023-06-26T08:12:42;46.80;1.00
429;DHT22;201;48.758;9.290;2023-06-26T08:15:11;46.80;1.00
429;DHT22;201;48.758;9.290;2023-06-26T08:17:37;47.00;1.00
429;DHT22;201;48.758;9.290;2023-06-26T08:20:03;46.80;1.00
429;DHT22;201;48.758;9.290;2023-06-26T08:22:29;46.20;1.00
429;DHT22;201;48.758;9.290;2023-06-26T08:24:54;47.00;1.00
429;DHT22;201;48.758;9.290;2023-06-26T08:27:20;46.20;1.00
429;DHT22;201;48.758;9.290;2023-06-26T08:29:46;45.40;1.00
429;DHT22;201;48.758;9.290;2023-06-26T08:32:11;46.00;1.00
429;DHT22;201;48.758;9.290;2023-06-26T08:34:37;46.80;1.00
429;DHT22;201;48.758;9.290;2023-06-26T08:37:02;47.50;1.00
429;DHT22;201;48.758;9.290;2023-06-26T08:39:28;47.90;1.00
429;DHT22;201;48.758;9.290;2023-06-26T08:41:53;47.90;1.00
429;DHT22;201;48.758;9.290;2023-06-26T08:44:19;47.70;1.00
429;DHT22;201;48.758;9.290;2023-06-26T08:46:49;47.90;1.00
429;DHT22;201;48.758;9.290;2023-06-26T08:49:18;47.50;1.00
429;DHT22;201;48.758;9.290;2023-06-26T08:52:02;46.30;1.00
429;DHT22;201;48.758;9.290;2023-06-26T08:54:35;45.60;1.00
429;DHT22;201;48.758;9.290;2023-06-26T08:57:02;44.70;1.00
429;DHT22;201;48.758;9.290;2023-06-26T08:59:28;44.90;1.00
429;DHT22;201;48.758;9.290;2023-06-26T09:01:54;45.60;1.00
429;DHT22;201;48.758;9.290;2023-06-26T09:04:19;46.20;1.00
429;DHT22;201;48.758;9.290;2023-06-26T09:06:45;45.60;1.00
429;DHT22;201;48.758;9.290;2023-06-26T09:09:11;46.90;1.00
429;DHT22;201;48.758;9.290;2023-06-26T09:11:36;47.90;1.00
429;DHT22;201;48.758;9.290;2023-06-26T09:14:02;47.50;1.00
429;DHT22;201;48.758;9.290;2023-06-26T09:16:31;47.00;1.00
429;DHT22;201;48.758;9.290;2023-06-26T09:18:56;48.20;1.00
429;DHT22;201;48.758;9.290;2023-06-26T09:21:22;49.20;1.00
429;DHT22;201;48.758;9.290;2023-06-26T09:23:50;50.00;1.00
429;DHT22;201;48.758;9.290;2023-06-26T09:26:16;50.00;1.00
429;DHT22;201;48.758;9.290;2023-06-26T09:28:42;49.60;1.00
429;DHT22;201;48.758;9.290;2023-06-26T09:31:08;47.00;1.00
429;DHT22;201;48.758;9.290;2023-06-26T09:33:36;45.50;1.00
429;DHT22;201;48.758;9.290;2023-06-26T09:36:05;44.70;1.00
429;DHT22;201;48.758;9.290;2023-06-26T09:38:31;44.10;1.00
429;DHT22;201;48.758;9.290;2023-06-26T09:40:57;44.30;1.00
429;DHT22;201;48.758;9.290;2023-06-26T09:43:23;44.10;1.00
429;DHT22;201;48.758;9.290;2023-06-26T09:45:48;42.70;1.00
429;DHT22;201;48.758;9.290;2023-06-26T09:48:14;41.60;1.00
429;DHT22;201;48.758;9.290;2023-06-26T09:50:41;42.20;1.00
429;DHT22;201;48.758;9.290;2023-06-26T09:53:11;41.00;1.00
429;DHT22;201;48.758;9.290;2023-06-26T09:55:39;40.50;1.00
429;DHT22;201;48.758;9.290;2023-06-26T09:58:06;40.30;1.00
429;DHT22;201;48.758;9.290;2023-06-26T10:00:32;40.10;1.00
429;DHT22;201;48.758;9.290;2023-06-26T10:02:59;38.80;1.00
429;DHT22;201;48.758;9.290;2023-06-26T10:05:24;38.60;1.00
429;DHT22;201;48.758;9.290;2023-06-26T10:07:50;37.80;1.00
429;DHT22;201;48.758;9.290;2023-06-26T10:10:17;36.60;1.00
429;DHT22;201;48.758;9.290;2023-06-26T10:12:46;35.00;1.00
429;DHT22;201;48.758;9.290;2023-06-26T10:15:13;33.90;1.00
429;DHT22;201;48.758;9.290;2023-06-26T10:17:43;33.10;1.00
429;DHT22;201;48.758;9.290;2023-06-26T10:20:09;32.50;1.00
429;DHT22;201;48.758;9.290;2023-06-26T10:22:45;32.10;1.00
429;DHT22;201;48.758;9.290;2023-06-26T10:25:16;33.00;1.00
429;DHT22;201;48.758;9.290;2023-06-26T10:27:46;33.20;1.00
429;DHT22;201;48.758;9.290;2023-06-26T10:30:16;32.80;1.00
429;DHT22;201;48.758;9.290;2023-06-26T10:32:43;33.50;1.00
429;DHT22;201;48.758;9.290;2023-06-26T10:35:10;33.70;1.00
429;DHT22;201;48.758;9.290;2023-06-26T10:40:09;34.30;1.00
429;DHT22;201;48.758;9.290;2023-06-26T10:42:37;35.00;1.00
429;DHT22;201;48.758;9.290;2023-06-26T10:45:30;35.00;1.00
429;DHT22;201;48.758;9.290;2023-06-26T10:47:57;34.70;1.00
429;DHT22;201;48.758;9.290;2023-06-26T10:50:28;33.00;1.00
429;DHT22;201;48.758;9.290;2023-06-26T10:56:02;30.40;1.00
429;DHT22;201;48.758;9.290;2023-06-26T11:01:16;29.50;1.00
429;DHT22;201;48.758;9.290;2023-06-26T11:03:44;29.40;1.00
429;DHT22;201;48.758;9.290;2023-06-26T11:06:14;29.20;1.00
429;DHT22;201;48.758;9.290;2023-06-26T11:11:14;29.30;1.00
429;DHT22;201;48.758;9.290;2023-06-26T11:13:41;30.10;1.00
429;DHT22;201;48.758;9.290;2023-06-26T11:16:06;30.70;1.00
429;DHT22;201;48.758;9.290;2023-06-26T11:18:32;31.30;1.00
429;DHT22;201;48.758;9.290;2023-06-26T11:21:11;31.70;1.00
429;DHT22;201;48.758;9.290;2023-06-26T11:23:40;32.10;1.00
429;DHT22;201;48.758;9.290;2023-06-26T11:26:16;32.40;1.00
429;DHT22;201;48.758;9.290;2023-06-26T11:28:50;32.60;1.00
429;DHT22;201;48.758;9.290;2023-06-26T11:31:30;32.70;1.00
429;DHT22;201;48.758;9.290;2023-06-26T11:34:00;32.70;1.00
429;DHT22;201;48.758;9.290;2023-06-26T11:36:27;33.00;1.00
429;DHT22;201;48.758;9.290;2023-06-26T11:39:00;33.10;1.00
429;DHT22;201;48.758;9.290;2023-06-26T11:41:27;32.90;1.00
429;DHT22;201;48.758;9.290;2023-06-26T11:43:54;32.60;1.00
429;DHT22;201;48.758;9.290;2023-06-26T11:46:20;32.40;1.00
429;DHT22;201;48.758;9.290;2023-06-26T11:48:46;32.10;1.00
429;DHT22;201;48.758;9.290;2023-06-26T11:51:13;32.20;1.00
429;DHT22;201;48.758;9.290;2023-06-26T11:53:41;32.50;1.00
429;DHT22;201;48.758;9.290;2023-06-26T11:56:17;32.70;1.00
429;DHT22;201;48.758;9.290;2023-06-26T11:59:02;32.70;1.00
429;DHT22;201;48.758;9.290;2023-06-26T12:04:05;32.90;1.00
429;DHT22;201;48.758;9.290;2023-06-26T12:06:33;32.70;1.00
429;DHT22;201;48.758;9.290;2023-06-26T12:09:00;32.30;1.00
429;DHT22;201;48.758;9.290;2023-06-26T12:11:26;32.20;1.00
429;DHT22;201;48.758;9.290;2023-06-26T12:13:53;32.40;1.00
429;DHT22;201;48.758;9.290;2023-06-26T12:16:19;32.40;1.00
429;DHT22;201;48.758;9.290;2023-06-26T12:18:45;32.60;1.00
429;DHT22;201;48.758;9.290;2023-06-26T12:24:12;32.50;1.00
429;DHT22;201;48.758;9.290;2023-06-26T12:26:40;31.70;1.00
429;DHT22;201;48.758;9.290;2023-06-26T12:29:11;31.20;1.00
429;DHT22;201;48.758;9.290;2023-06-26T12:31:40;31.30;1.00
429;DHT22;201;48.758;9.290;2023-06-26T12:34:10;31.50;1.00
429;DHT22;201;48.758;9.290;2023-06-26T12:36:44;31.40;1.00
429;DHT22;201;48.758;9.290;2023-06-26T12:39:11;31.50;1.00
429;DHT22;201;48.758;9.290;2023-06-26T12:41:47;31.60;1.00
429;DHT22;201;48.758;9.290;2023-06-26T12:44:31;31.60;1.00
429;DHT22;201;48.758;9.290;2023-06-26T12:47:01;31.80;1.00
429;DHT22;201;48.758;9.290;2023-06-26T12:49:38;31.60;1.00
429;DHT22;201;48.758;9.290;2023-06-26T12:52:05;31.50;1.00
429;DHT22;201;48.758;9.290;2023-06-26T12:54:31;31.50;1.00
429;DHT22;201;48.758;9.290;2023-06-26T12:56:57;31.40;1.00
429;DHT22;201;48.758;9.290;2023-06-26T12:59:23;31.30;1.00
429;DHT22;201;48.758;9.290;2023-06-26T13:01:49;31.10;1.00
429;DHT22;201;48.758;9.290;2023-06-26T13:04:15;31.10;1.00
429;DHT22;201;48.758;9.290;2023-06-26T13:06:40;31.20;1.00
429;DHT22;201;48.758;9.290;2023-06-26T13:09:06;31.30;1.00
429;DHT22;201;48.758;9.290;2023-06-26T13:11:32;31.30;1.00
429;DHT22;201;48.758;9.290;2023-06-26T13:13:59;31.30;1.00
429;DHT22;201;48.758;9.290;2023-06-26T13:16:24;31.10;1.00
429;DHT22;201;48.758;9.290;2023-06-26T13:18:50;31.00;1.00
429;DHT22;201;48.758;9.290;2023-06-26T13:21:16;30.70;1.00
429;DHT22;201;48.758;9.290;2023-06-26T13:23:42;30.50;1.00
429;DHT22;201;48.758;9.290;2023-06-26T13:26:08;30.40;1.00
429;DHT22;201;48.758;9.290;2023-06-26T13:28:33;30.50;1.00
429;DHT22;201;48.758;9.290;2023-06-26T13:30:59;30.60;1.00
429;DHT22;201;48.758;9.290;2023-06-26T13:33:24;30.70;1.00
429;DHT22;201;48.758;9.290;2023-06-26T13:35:53;30.40;1.00
429;DHT22;201;48.758;9.290;2023-06-26T13:38:22;29.90;1.00
429;DHT22;201;48.758;9.290;2023-06-26T13:40:51;29.80;1.00
429;DHT22;201;48.758;9.290;2023-06-26T13:43:17;29.90;1.00
429;DHT22;201;48.758;9.290;2023-06-26T13:45:42;29.70;1.00
429;DHT22;201;48.758;9.290;2023-06-26T13:48:08;29.60;1.00
429;DHT22;201;48.758;9.290;2023-06-26T13:50:33;29.70;1.00
429;DHT22;201;48.758;9.290;2023-06-26T13:52:59;29.80;1.00
429;DHT22;201;48.758;9.290;2023-06-26T13:55:24;29.90;1.00
429;DHT22;201;48.758;9.290;2023-06-26T13:57:50;30.00;1.00
429;DHT22;201;48.758;9.290;2023-06-26T14:00:15;30.00;1.00
429;DHT22;201;48.758;9.290;2023-06-26T14:02:45;29.80;1.00
429;DHT22;201;48.758;9.290;2023-06-26T14:05:11;29.80;1.00
429;DHT22;201;48.758;9.290;2023-06-26T14:07:37;29.80;1.00
429;DHT22;201;48.758;9.290;2023-06-26T14:10:03;29.90;1.00
429;DHT22;201;48.758;9.290;2023-06-26T14:12:30;30.00;1.00
429;DHT22;201;48.758;9.290;2023-06-26T14:14:56;29.90;1.00
429;DHT22;201;48.758;9.290;2023-06-26T14:17:21;30.00;1.00
429;DHT22;201;48.758;9.290;2023-06-26T14:19:49;30.00;1.00
429;DHT22;201;48.758;9.290;2023-06-26T14:22:15;30.00;1.00
429;DHT22;201;48.758;9.290;2023-06-26T14:24:40;30.00;1.00
429;DHT22;201;48.758;9.290;2023-06-26T14:27:06;30.00;1.00
429;DHT22;201;48.758;9.290;2023-06-26T14:29:31;30.00;1.00
429;DHT22;201;48.758;9.290;2023-06-26T14:31:57;30.00;1.00
429;DHT22;201;48.758;9.290;2023-06-26T14:34:22;30.00;1.00
429;DHT22;201;48.758;9.290;2023-06-26T14:36:48;30.10;1.00
429;DHT22;201;48.758;9.290;2023-06-26T14:39:13;30.20;1.00
429;DHT22;201;48.758;9.290;2023-06-26T14:41:39;30.10;1.00
429;DHT22;201;48.758;9.290;2023-06-26T14:44:05;30.00;1.00
429;DHT22;201;48.758;9.290;2023-06-26T14:46:33;29.80;1.00
429;DHT22;201;48.758;9.290;2023-06-26T14:48:59;29.90;1.00
429;DHT22;201;48.758;9.290;2023-06-26T14:51:24;29.90;1.00
429;DHT22;201;48.758;9.290;2023-06-26T14:53:51;29.70;1.00
429;DHT22;201;48.758;9.290;2023-06-26T14:56:17;29.60;1.00
429;DHT22;201;48.758;9.290;2023-06-26T14:58:42;29.50;1.00
429;DHT22;201;48.758;9.290;2023-06-26T15:01:08;29.40;1.00
429;DHT22;201;48.758;9.290;2023-06-26T15:03:34;29.50;1.00
429;DHT22;201;48.758;9.290;2023-06-26T15:06:00;29.30;1.00
429;DHT22;201;48.758;9.290;2023-06-26T15:08:25;29.20;1.00
429;DHT22;201;48.758;9.290;2023-06-26T15:10:51;29.10;1.00
429;DHT22;201;48.758;9.290;2023-06-26T15:13:16;29.00;1.00
429;DHT22;201;48.758;9.290;2023-06-26T15:15:42;28.90;1.00
429;DHT22;201;48.758;9.290;2023-06-26T15:18:07;28.90;1.00
429;DHT22;201;48.758;9.290;2023-06-26T15:20:33;28.80;1.00
429;DHT22;201;48.758;9.290;2023-06-26T15:22:58;28.60;1.00
429;DHT22;201;48.758;9.290;2023-06-26T15:25:24;28.60;1.00
429;DHT22;201;48.758;9.290;2023-06-26T15:27:49;28.50;1.00
429;DHT22;201;48.758;9.290;2023-06-26T15:30:15;28.60;1.00
429;DHT22;201;48.758;9.290;2023-06-26T15:32:41;28.60;1.00
429;DHT22;201;48.758;9.290;2023-06-26T15:35:07;28.50;1.00
429;DHT22;201;48.758;9.290;2023-06-26T15:37:32;28.30;1.00
429;DHT22;201;48.758;9.290;2023-06-26T15:39:58;28.20;1.00
429;DHT22;201;48.758;9.290;2023-06-26T15:42:27;28.20;1.00
429;DHT22;201;48.758;9.290;2023-06-26T15:44:54;28.00;1.00
429;DHT22;201;48.758;9.290;2023-06-26T15:47:19;27.80;1.00
429;DHT22;201;48.758;9.290;2023-06-26T15:49:45;27.70;1.00
429;DHT22;201;48.758;9.290;2023-06-26T15:52:10;27.50;1.00
429;DHT22;201;48.758;9.290;2023-06-26T15:54:36;27.50;1.00
429;DHT22;201;48.758;9.290;2023-06-26T15:57:02;27.50;1.00
429;DHT22;201;48.758;9.290;2023-06-26T15:59:27;27.50;1.00
429;DHT22;201;48.758;9.290;2023-06-26T16:01:53;27.50;1.00
429;DHT22;201;48.758;9.290;2023-06-26T16:04:19;27.20;1.00
429;DHT22;201;48.758;9.290;2023-06-26T16:06:46;27.10;1.00
429;DHT22;201;48.758;9.290;2023-06-26T16:09:12;27.00;1.00
429;DHT22;201;48.758;9.290;2023-06-26T16:11:38;26.90;1.00
429;DHT22;201;48.758;9.290;2023-06-26T16:14:03;26.80;1.00
429;DHT22;201;48.758;9.290;2023-06-26T16:16:29;26.70;1.00
429;DHT22;201;48.758;9.290;2023-06-26T16:18:54;26.70;1.00
429;DHT22;201;48.758;9.290;2023-06-26T16:21:20;26.60;1.00
429;DHT22;201;48.758;9.290;2023-06-26T16:23:45;26.40;1.00
429;DHT22;201;48.758;9.290;2023-06-26T16:26:11;26.40;1.00
429;DHT22;201;48.758;9.290;2023-06-26T16:28:36;26.30;1.00
429;DHT22;201;48.758;9.290;2023-06-26T16:31:02;26.30;1.00
429;DHT22;201;48.758;9.290;2023-06-26T16:33:27;26.30;1.00
429;DHT22;201;48.758;9.290;2023-06-26T16:35:53;26.30;1.00
429;DHT22;201;48.758;9.290;2023-06-26T16:38:18;26.30;1.00
429;DHT22;201;48.758;9.290;2023-06-26T16:40:44;26.30;1.00
429;DHT22;201;48.758;9.290;2023-06-26T16:43:10;26.30;1.00
429;DHT22;201;48.758;9.290;2023-06-26T16:45:36;26.20;1.00
429;DHT22;201;48.758;9.290;2023-06-26T16:48:02;26.10;1.00
429;DHT22;201;48.758;9.290;2023-06-26T16:50:28;26.20;1.00
429;DHT22;201;48.758;9.290;2023-06-26T16:52:54;26.30;1.00
429;DHT22;201;48.758;9.290;2023-06-26T16:55:19;26.20;1.00
429;DHT22;201;48.758;9.290;2023-06-26T16:57:45;26.30;1.00
429;DHT22;201;48.758;9.290;2023-06-26T17:00:11;26.30;1.00
429;DHT22;201;48.758;9.290;2023-06-26T17:02:36;26.20;1.00
429;DHT22;201;48.758;9.290;2023-06-26T17:05:02;26.20;1.00
429;DHT22;201;48.758;9.290;2023-06-26T17:07:27;26.20;1.00
429;DHT22;201;48.758;9.290;2023-06-26T17:09:54;26.00;1.00
429;DHT22;201;48.758;9.290;2023-06-26T17:12:20;26.00;1.00